sensor_id;sensor_type;location;lat;lon;timestamp;pressure;altitude;pressure_sealevel;temperature;humidity
52319;BME280;38258;51.148;14.068;2023-04-19T00:01:48;99089.59;;;6.92;100.00
52319;BME280;38258;51.148;14.068;2023-04-19T00:04:14;99088.72;;;6.88;100.00
52319;BME280;38258;51.148;14.068;2023-04-19T00:06:41;99087.88;;;6.82;100.00
52319;BME280;38258;51.148;14.068;2023-04-19T00:09:08;99092.22;;;6.78;100.00
52319;BME280;38258;51.148;14.068;2023-04-19T00:11:36;99090.50;;;6.82;100.00
52319;BME280;38258;51.148;14.068;2023-04-19T00:14:03;99081.84;;;6.70;100.00
52319;BME280;38258;51.148;14.068;2023-04-19T00:16:29;99087.00;;;6.72;100.00
52319;BME280;38258;51.148;14.068;2023-04-19T00:18:56;99087.88;;;6.66;100.00
52319;BME280;38258;51.148;14.068;2023-04-19T00:21:23;99067.97;;;6.54;100.00
52319;BME280;38258;51.148;14.068;2023-04-19T00:23:50;99079.25;;;6.62;100.00
52319;BME280;38258;51.148;14.068;2023-04-19T00:26:18;99074.03;;;6.59;100.00
52319;BME280;38258;51.148;14.068;2023-04-19T00:28:49;99067.09;;;6.55;100.00
52319;BME280;38258;51.148;14.068;2023-04-19T00:31:16;99059.34;;;6.49;100.00
52319;BME280;38258;51.148;14.068;2023-04-19T00:33:43;99066.25;;;6.51;100.00
52319;BME280;38258;51.148;14.068;2023-04-19T00:36:09;99045.47;;;6.48;100.00
52319;BME280;38258;51.148;14.068;2023-04-19T00:38:37;99054.13;;;6.44;100.00
52319;BME280;38258;51.148;14.068;2023-04-19T00:41:04;99065.38;;;6.46;100.00
52319;BME280;38258;51.148;14.068;2023-04-19T00:43:31;99050.69;;;6.31;100.00
52319;BME280;38258;51.148;14.068;2023-04-19T00:46:01;99068.00;;;6.31;100.00
52319;BME280;38258;51.148;14.068;2023-04-19T00:48:28;99064.53;;;6.30;100.00
52319;BME280;38258;51.148;14.068;2023-04-19T00:50:55;99065.38;;;6.21;100.00
52319;BME280;38258;51.148;14.068;2023-04-19T00:53:22;99058.47;;;6.17;100.00
52319;BME280;38258;51.148;14.068;2023-04-19T00:55:50;99060.19;;;6.09;100.00
52319;BME280;38258;51.148;14.068;2023-04-19T00:58:17;99056.75;;;6.10;100.00
52319;BME280;38258;51.148;14.068;2023-04-19T01:00:44;99056.72;;;6.15;100.00
52319;BME280;38258;51.148;14.068;2023-04-19T01:03:12;99061.91;;;6.07;100.00
52319;BME280;38258;51.148;14.068;2023-04-19T01:05:39;99055.88;;;6.11;100.00
52319;BME280;38258;51.148;14.068;2023-04-19T01:08:06;99058.47;;;6.03;100.00
52319;BME280;38258;51.148;14.068;2023-04-19T01:10:32;99057.53;;;5.93;100.00
52319;BME280;38258;51.148;14.068;2023-04-19T01:12:59;99054.94;;;5.93;100.00
52319;BME280;38258;51.148;14.068;2023-04-19T01:15:26;99053.19;;;5.88;100.00
52319;BME280;38258;51.148;14.068;2023-04-19T01:17:53;99051.47;;;5.84;100.00
52319;BME280;38258;51.148;14.068;2023-04-19T01:20:22;99043.69;;;5.79;100.00
52319;BME280;38258;51.148;14.068;2023-04-19T01:22:50;99040.25;;;5.83;100.00
52319;BME280;38258;51.148;14.068;2023-04-19T01:25:17;99041.09;;;5.84;100.00
52319;BME280;38258;51.148;14.068;2023-04-19T01:27:43;99030.69;;;5.79;100.00
52319;BME280;38258;51.148;14.068;2023-04-19T01:30:11;99029.81;;;5.72;100.00
52319;BME280;38258;51.148;14.068;2023-04-19T01:32:37;99024.63;;;5.77;100.00
52319;BME280;38258;51.148;14.068;2023-04-19T01:35:05;99022.06;;;5.78;100.00
52319;BME280;38258;51.148;14.068;2023-04-19T01:37:34;99034.16;;;5.64;100.00
52319;BME280;38258;51.148;14.068;2023-04-19T01:40:03;99023.75;;;5.61;100.00
52319;BME280;38258;51.148;14.068;2023-04-19T01:42:30;99021.16;;;5.56;100.00
52319;BME280;38258;51.148;14.068;2023-04-19T01:44:59;99022.88;;;5.66;100.00
52319;BME280;38258;51.148;14.068;2023-04-19T01:47:26;99018.56;;;5.65;100.00
52319;BME280;38258;51.148;14.068;2023-04-19T01:49:53;99009.06;;;5.63;100.00
52319;BME280;38258;51.148;14.068;2023-04-19T01:52:19;99006.47;;;5.66;100.00
52319;BME280;38258;51.148;14.068;2023-04-19T01:54:47;98993.47;;;5.61;100.00
52319;BME280;38258;51.148;14.068;2023-04-19T01:57:15;98999.50;;;5.49;100.00
52319;BME280;38258;51.148;14.068;2023-04-19T01:59:43;99003.84;;;5.58;100.00
52319;BME280;38258;51.148;14.068;2023-04-19T02:02:10;99015.09;;;5.56;100.00
52319;BME280;38258;51.148;14.068;2023-04-19T02:04:37;99007.28;;;5.48;100.00
52319;BME280;38258;51.148;14.068;2023-04-19T02:07:04;99010.75;;;5.47;100.00
52319;BME280;38258;51.148;14.068;2023-04-19T02:09:34;99007.28;;;5.51;100.00
52319;BME280;38258;51.148;14.068;2023-04-19T02:12:01;98986.53;;;5.48;100.00
52319;BME280;38258;51.148;14.068;2023-04-19T02:14:29;99001.22;;;5.46;100.00
52319;BME280;38258;51.148;14.068;2023-04-19T02:16:56;98988.25;;;5.52;100.00
52319;BME280;38258;51.148;14.068;2023-04-19T02:19:23;98977.88;;;5.38;100.00
52319;BME280;38258;51.148;14.068;2023-04-19T02:21:50;98983.03;;;5.36;100.00
52319;BME280;38258;51.148;14.068;2023-04-19T02:24:18;98997.78;;;5.44;100.00
52319;BME280;38258;51.148;14.068;2023-04-19T02:26:44;98989.13;;;5.38;100.00
52319;BME280;38258;51.148;14.068;2023-04-19T02:29:13;98988.25;;;5.35;100.00
52319;BME280;38258;51.148;14.068;2023-04-19T02:31:42;98980.44;;;5.24;100.00
52319;BME280;38258;51.148;14.068;2023-04-19T02:34:10;98997.75;;;5.31;100.00
52319;BME280;38258;51.148;14.068;2023-04-19T02:36:37;98980.44;;;5.24;100.00
52319;BME280;38258;51.148;14.068;2023-04-19T02:39:04;98987.34;;;5.30;100.00
52319;BME280;38258;51.148;14.068;2023-04-19T02:41:31;98985.66;;;5.32;100.00
52319;BME280;38258;51.148;14.068;2023-04-19T02:44:00;98974.34;;;5.22;100.00
52319;BME280;38258;51.148;14.068;2023-04-19T02:46:27;98969.16;;;5.19;100.00
52319;BME280;38258;51.148;14.068;2023-04-19T02:48:55;98975.25;;;5.24;100.00
52319;BME280;38258;51.148;14.068;2023-04-19T02:51:22;98976.09;;;5.20;100.00
52319;BME280;38258;51.148;14.068;2023-04-19T02:53:49;98981.28;;;5.17;100.00
52319;BME280;38258;51.148;14.068;2023-04-19T02:56:16;98961.38;;;5.16;100.00
52319;BME280;38258;51.148;14.068;2023-04-19T02:58:43;98964.84;;;5.15;100.00
52319;BME280;38258;51.148;14.068;2023-04-19T03:01:10;98931.06;;;5.01;100.00
52319;BME280;38258;51.148;14.068;2023-04-19T03:03:37;98955.31;;;5.07;100.00
52319;BME280;38258;51.148;14.068;2023-04-19T03:06:06;98960.50;;;5.15;100.00
52319;BME280;38258;51.148;14.068;2023-04-19T03:08:33;98957.03;;;5.10;100.00
52319;BME280;38258;51.148;14.068;2023-04-19T03:11:00;98956.16;;;5.03;100.00
52319;BME280;38258;51.148;14.068;2023-04-19T03:13:29;98959.63;;;5.05;100.00
52319;BME280;38258;51.148;14.068;2023-04-19T03:15:56;98957.88;;;5.00;100.00
52319;BME280;38258;51.148;14.068;2023-04-19T03:18:22;98945.75;;;4.91;100.00
52319;BME280;38258;51.148;14.068;2023-04-19T03:20:51;98954.38;;;4.93;100.00
52319;BME280;38258;51.148;14.068;2023-04-19T03:23:20;98951.81;;;4.91;100.00
52319;BME280;38258;51.148;14.068;2023-04-19T03:25:48;98963.03;;;4.92;100.00
52319;BME280;38258;51.148;14.068;2023-04-19T03:28:34;98927.56;;;4.78;100.00
52319;BME280;38258;51.148;14.068;2023-04-19T03:31:13;98944.03;;;4.93;100.00
52319;BME280;38258;51.148;14.068;2023-04-19T03:33:40;98944.00;;;4.85;100.00
52319;BME280;38258;51.148;14.068;2023-04-19T03:36:08;98934.44;;;4.73;100.00
52319;BME280;38258;51.148;14.068;2023-04-19T03:38:38;98937.94;;;4.74;100.00
52319;BME280;38258;51.148;14.068;2023-04-19T03:41:17;98937.03;;;4.70;100.00
52319;BME280;38258;51.148;14.068;2023-04-19T03:43:44;98950.00;;;4.67;100.00
52319;BME280;38258;51.148;14.068;2023-04-19T03:46:11;98928.31;;;4.54;100.00
52319;BME280;38258;51.148;14.068;2023-04-19T03:48:37;98931.75;;;4.50;100.00
52319;BME280;38258;51.148;14.068;2023-04-19T03:51:05;98938.63;;;4.43;100.00
52319;BME280;38258;51.148;14.068;2023-04-19T03:53:32;98929.94;;;4.33;100.00
52319;BME280;38258;51.148;14.068;2023-04-19T03:56:00;98934.28;;;4.34;100.00
52319;BME280;38258;51.148;14.068;2023-04-19T03:58:27;98930.72;;;4.18;100.00
52319;BME280;38258;51.148;14.068;2023-04-19T04:01:01;98928.16;;;4.20;100.00
52319;BME280;38258;51.148;14.068;2023-04-19T04:03:28;98930.69;;;4.09;100.00
52319;BME280;38258;51.148;14.068;2023-04-19T04:05:55;98942.75;;;4.10;100.00
52319;BME280;38258;51.148;14.068;2023-04-19T04:08:21;98941.03;;;4.14;100.00
52319;BME280;38258;51.148;14.068;2023-04-19T04:10:48;98940.97;;;4.00;100.00
52319;BME280;38258;51.148;14.068;2023-04-19T04:13:17;98937.53;;;4.02;100.00
52319;BME280;38258;51.148;14.068;2023-04-19T04:15:49;98931.44;;;3.95;100.00
52319;BME280;38258;51.148;14.068;2023-04-19T04:18:16;98929.56;;;3.77;100.00
52319;BME280;38258;51.148;14.068;2023-04-19T04:20:43;98934.75;;;3.77;100.00
52319;BME280;38258;51.148;14.068;2023-04-19T04:23:11;98931.28;;;3.77;100.00
52319;BME280;38258;51.148;14.068;2023-04-19T04:25:43;98939.03;;;3.74;100.00
52319;BME280;38258;51.148;14.068;2023-04-19T04:28:12;98926.94;;;3.70;100.00
52319;BME280;38258;51.148;14.068;2023-04-19T04:30:41;98936.41;;;3.71;100.00
52319;BME280;38258;51.148;14.068;2023-04-19T04:33:09;98937.25;;;3.65;100.00
52319;BME280;38258;51.148;14.068;2023-04-19T04:35:38;98935.47;;;3.59;100.00
52319;BME280;38258;51.148;14.068;2023-04-19T04:38:11;98935.44;;;3.58;100.00
52319;BME280;38258;51.148;14.068;2023-04-19T04:40:38;98925.97;;;3.58;100.00
52319;BME280;38258;51.148;14.068;2023-04-19T04:43:06;98923.38;;;3.58;100.00
52319;BME280;38258;51.148;14.068;2023-04-19T04:45:33;98934.66;;;3.68;100.00
52319;BME280;38258;51.148;14.068;2023-04-19T04:48:04;98919.91;;;3.54;100.00
52319;BME280;38258;51.148;14.068;2023-04-19T04:50:31;98925.03;;;3.48;100.00
52319;BME280;38258;51.148;14.068;2023-04-19T04:52:57;98919.75;;;3.39;100.00
52319;BME280;38258;51.148;14.068;2023-04-19T04:55:30;98924.03;;;3.34;100.00
52319;BME280;38258;51.148;14.068;2023-04-19T04:57:58;98917.13;;;3.33;100.00
52319;BME280;38258;51.148;14.068;2023-04-19T05:00:39;98925.59;;;3.18;100.00
52319;BME280;38258;51.148;14.068;2023-04-19T05:03:09;98926.34;;;3.07;100.00
52319;BME280;38258;51.148;14.068;2023-04-19T05:05:43;98931.44;;;3.01;100.00
52319;BME280;38258;51.148;14.068;2023-04-19T05:08:10;98932.28;;;2.99;100.00
52319;BME280;38258;51.148;14.068;2023-04-19T05:10:37;98927.97;;;2.96;100.00
52319;BME280;38258;51.148;14.068;2023-04-19T05:13:03;98920.06;;;2.83;100.00
52319;BME280;38258;51.148;14.068;2023-04-19T05:15:31;98919.94;;;2.73;100.00
52319;BME280;38258;51.148;14.068;2023-04-19T05:17:58;98918.25;;;2.75;100.00
52319;BME280;38258;51.148;14.068;2023-04-19T05:20:30;98925.22;;;2.80;100.00
52319;BME280;38258;51.148;14.068;2023-04-19T05:23:08;98902.69;;;2.72;100.00
52319;BME280;38258;51.148;14.068;2023-04-19T05:25:36;98872.41;;;2.58;100.00
52319;BME280;38258;51.148;14.068;2023-04-19T05:28:03;98916.59;;;2.81;100.00
52319;BME280;38258;51.148;14.068;2023-04-19T05:30:39;98914.09;;;2.89;100.00
52319;BME280;38258;51.148;14.068;2023-04-19T05:33:06;98915.69;;;2.79;100.00
52319;BME280;38258;51.148;14.068;2023-04-19T05:35:34;98912.28;;;2.82;100.00
52319;BME280;38258;51.148;14.068;2023-04-19T05:38:01;98922.72;;;2.93;100.00
52319;BME280;38258;51.148;14.068;2023-04-19T05:40:28;98924.41;;;2.88;100.00
52319;BME280;38258;51.148;14.068;2023-04-19T05:42:54;98920.97;;;2.89;100.00
52319;BME280;38258;51.148;14.068;2023-04-19T05:45:21;98913.31;;;2.96;100.00
52319;BME280;38258;51.148;14.068;2023-04-19T05:47:48;98919.28;;;2.94;100.00
52319;BME280;38258;51.148;14.068;2023-04-19T05:50:35;98922.84;;;3.02;100.00
52319;BME280;38258;51.148;14.068;2023-04-19T05:53:22;98922.06;;;3.08;100.00
52319;BME280;38258;51.148;14.068;2023-04-19T05:55:50;98915.25;;;3.16;100.00
52319;BME280;38258;51.148;14.068;2023-04-19T05:58:17;98908.41;;;3.24;100.00
52319;BME280;38258;51.148;14.068;2023-04-19T06:00:44;98904.88;;;3.15;100.00
52319;BME280;38258;51.148;14.068;2023-04-19T06:03:16;98904.03;;;3.16;100.00
52319;BME280;38258;51.148;14.068;2023-04-19T06:05:45;98897.19;;;3.21;100.00
52319;BME280;38258;51.148;14.068;2023-04-19T06:08:12;98881.56;;;3.07;100.00
52319;BME280;38258;51.148;14.068;2023-04-19T06:10:40;98902.56;;;3.44;100.00
52319;BME280;38258;51.148;14.068;2023-04-19T06:13:09;98897.50;;;3.55;100.00
52319;BME280;38258;51.148;14.068;2023-04-19T06:15:35;98904.28;;;3.41;100.00
52319;BME280;38258;51.148;14.068;2023-04-19T06:18:04;98906.84;;;3.39;100.00
52319;BME280;38258;51.148;14.068;2023-04-19T06:20:34;98902.41;;;3.24;100.00
52319;BME280;38258;51.148;14.068;2023-04-19T06:23:05;98906.88;;;3.44;100.00
52319;BME280;38258;51.148;14.068;2023-04-19T06:25:32;98914.94;;;3.79;100.00
52319;BME280;38258;51.148;14.068;2023-04-19T06:27:59;98917.47;;;3.75;100.00
52319;BME280;38258;51.148;14.068;2023-04-19T06:30:26;98915.72;;;3.71;100.00
52319;BME280;38258;51.148;14.068;2023-04-19T06:32:52;98921.66;;;3.60;100.00
52319;BME280;38258;51.148;14.068;2023-04-19T06:35:19;98925.19;;;3.68;100.00
52319;BME280;38258;51.148;14.068;2023-04-19T06:37:46;98913.13;;;3.69;100.00
52319;BME280;38258;51.148;14.068;2023-04-19T06:40:14;98882.94;;;3.66;100.00
52319;BME280;38258;51.148;14.068;2023-04-19T06:42:41;98909.78;;;3.86;100.00
52319;BME280;38258;51.148;14.068;2023-04-19T06:45:09;98919.22;;;3.77;100.00
52319;BME280;38258;51.148;14.068;2023-04-19T06:47:36;98905.56;;;3.97;100.00
52319;BME280;38258;51.148;14.068;2023-04-19T06:50:03;98895.06;;;3.80;100.00
52319;BME280;38258;51.148;14.068;2023-04-19T06:52:29;98908.97;;;3.94;100.00
52319;BME280;38258;51.148;14.068;2023-04-19T06:54:56;98910.72;;;3.94;100.00
52319;BME280;38258;51.148;14.068;2023-04-19T06:57:25;98902.06;;;3.93;100.00
52319;BME280;38258;51.148;14.068;2023-04-19T06:59:53;98903.06;;;4.16;100.00
52319;BME280;38258;51.148;14.068;2023-04-19T07:02:19;98910.00;;;4.15;100.00
52319;BME280;38258;51.148;14.068;2023-04-19T07:04:46;98899.59;;;4.10;100.00
52319;BME280;38258;51.148;14.068;2023-04-19T07:07:13;98890.25;;;4.34;100.00
52319;BME280;38258;51.148;14.068;2023-04-19T07:09:40;98888.56;;;4.41;100.00
52319;BME280;38258;51.148;14.068;2023-04-19T07:12:06;98879.84;;;4.30;100.00
52319;BME280;38258;51.148;14.068;2023-04-19T07:14:34;98880.75;;;4.39;100.00
52319;BME280;38258;51.148;14.068;2023-04-19T07:17:03;98876.44;;;4.42;100.00
52319;BME280;38258;51.148;14.068;2023-04-19T07:19:30;98874.81;;;4.69;100.00
52319;BME280;38258;51.148;14.068;2023-04-19T07:21:57;98867.16;;;5.17;100.00
52319;BME280;38258;51.148;14.068;2023-04-19T07:24:24;98870.59;;;5.03;100.00
52319;BME280;38258;51.148;14.068;2023-04-19T07:26:52;98882.63;;;4.75;100.00
52319;BME280;38258;51.148;14.068;2023-04-19T07:29:18;98885.22;;;4.67;100.00
52319;BME280;38258;51.148;14.068;2023-04-19T07:31:46;98865.38;;;4.85;100.00
52319;BME280;38258;51.148;14.068;2023-04-19T07:34:13;98868.78;;;4.73;100.00
52319;BME280;38258;51.148;14.068;2023-04-19T07:36:39;98865.41;;;5.03;100.00
52319;BME280;38258;51.148;14.068;2023-04-19T07:39:06;98843.75;;;4.79;100.00
52319;BME280;38258;51.148;14.068;2023-04-19T07:41:32;98855.06;;;5.20;100.00
52319;BME280;38258;51.148;14.068;2023-04-19T07:43:59;98841.22;;;4.98;100.00
52319;BME280;38258;51.148;14.068;2023-04-19T07:46:26;98855.06;;;5.19;100.00
52319;BME280;38258;51.148;14.068;2023-04-19T07:48:54;98858.53;;;5.35;100.00
52319;BME280;38258;51.148;14.068;2023-04-19T07:51:20;98847.28;;;5.28;100.00
52319;BME280;38258;51.148;14.068;2023-04-19T07:53:49;98848.13;;;4.99;100.00
52319;BME280;38258;51.148;14.068;2023-04-19T07:56:15;98849.84;;;5.90;100.00
52319;BME280;38258;51.148;14.068;2023-04-19T07:58:43;98824.78;;;5.36;100.00
52319;BME280;38258;51.148;14.068;2023-04-19T08:01:10;98861.97;;;5.76;100.00
52319;BME280;38258;51.148;14.068;2023-04-19T08:03:36;98837.78;;;5.50;100.00
52319;BME280;38258;51.148;14.068;2023-04-19T08:06:05;98853.31;;;5.72;100.00
52319;BME280;38258;51.148;14.068;2023-04-19T08:08:33;98860.22;;;6.12;100.00
52319;BME280;38258;51.148;14.068;2023-04-19T08:10:59;98838.59;;;5.79;100.00
52319;BME280;38258;51.148;14.068;2023-04-19T08:13:27;98851.56;;;6.04;100.00
52319;BME280;38258;51.148;14.068;2023-04-19T08:15:54;98863.69;;;5.86;100.00
52319;BME280;38258;51.148;14.068;2023-04-19T08:18:20;98860.22;;;5.97;100.00
52319;BME280;38258;51.148;14.068;2023-04-19T08:20:46;98856.56;;;6.63;100.00
52319;BME280;38258;51.148;14.068;2023-04-19T08:23:14;98852.16;;;6.76;100.00
52319;BME280;38258;51.148;14.068;2023-04-19T08:25:41;98849.84;;;5.87;100.00
52319;BME280;38258;51.148;14.068;2023-04-19T08:28:07;98854.81;;;6.62;100.00
52319;BME280;38258;51.148;14.068;2023-04-19T08:30:35;98864.09;;;7.06;100.00
52319;BME280;38258;51.148;14.068;2023-04-19T08:33:02;98818.38;;;6.74;100.00
52319;BME280;38258;51.148;14.068;2023-04-19T08:35:29;98844.13;;;7.15;100.00
52319;BME280;38258;51.148;14.068;2023-04-19T08:37:55;98850.19;;;7.12;100.00
52319;BME280;38258;51.148;14.068;2023-04-19T08:40:23;98846.97;;;6.74;100.00
52319;BME280;38258;51.148;14.068;2023-04-19T08:42:50;98854.91;;;6.43;100.00
52319;BME280;38258;51.148;14.068;2023-04-19T08:45:18;98835.13;;;6.05;100.00
52319;BME280;38258;51.148;14.068;2023-04-19T08:47:46;98853.28;;;6.14;100.00
52319;BME280;38258;51.148;14.068;2023-04-19T08:50:14;98854.19;;;5.76;100.00
52319;BME280;38258;51.148;14.068;2023-04-19T08:52:41;98835.16;;;5.69;100.00
52319;BME280;38258;51.148;14.068;2023-04-19T08:55:07;98842.94;;;5.82;100.00
52319;BME280;38258;51.148;14.068;2023-04-19T08:57:36;98842.00;;;6.23;100.00
52319;BME280;38258;51.148;14.068;2023-04-19T09:00:03;98812.63;;;5.87;100.00
52319;BME280;38258;51.148;14.068;2023-04-19T09:02:44;98822.19;;;5.69;100.00
52319;BME280;38258;51.148;14.068;2023-04-19T09:05:12;98838.59;;;6.04;100.00
52319;BME280;38258;51.148;14.068;2023-04-19T09:07:40;98839.38;;;6.21;100.00
52319;BME280;38258;51.148;14.068;2023-04-19T09:10:09;98797.94;;;5.79;100.00
52319;BME280;38258;51.148;14.068;2023-04-19T09:12:38;98835.41;;;7.19;100.00
52319;BME280;38258;51.148;14.068;2023-04-19T09:15:06;98823.50;;;6.81;100.00
52319;BME280;38258;51.148;14.068;2023-04-19T09:17:34;98820.50;;;7.41;100.00
52319;BME280;38258;51.148;14.068;2023-04-19T09:20:02;98783.72;;;6.72;100.00
52319;BME280;38258;51.148;14.068;2023-04-19T09:22:29;98782.31;;;6.03;100.00
52319;BME280;38258;51.148;14.068;2023-04-19T09:24:57;98804.81;;;6.04;100.00
52319;BME280;38258;51.148;14.068;2023-04-19T09:27:26;98801.34;;;5.92;100.00
52319;BME280;38258;51.148;14.068;2023-04-19T09:29:55;98804.63;;;6.50;100.00
52319;BME280;38258;51.148;14.068;2023-04-19T09:32:22;98788.28;;;6.23;100.00
52319;BME280;38258;51.148;14.068;2023-04-19T09:34:52;98804.78;;;6.16;100.00
52319;BME280;38258;51.148;14.068;2023-04-19T09:37:19;98813.41;;;6.28;100.00
52319;BME280;38258;51.148;14.068;2023-04-19T09:39:46;98807.28;;;7.61;100.00
52319;BME280;38258;51.148;14.068;2023-04-19T09:42:13;98810.81;;;7.56;100.00
52319;BME280;38258;51.148;14.068;2023-04-19T09:44:39;98808.50;;;7.21;100.00
52319;BME280;38258;51.148;14.068;2023-04-19T09:47:22;98807.50;;;7.40;100.00
52319;BME280;38258;51.148;14.068;2023-04-19T09:50:03;98796.81;;;7.69;100.00
52319;BME280;38258;51.148;14.068;2023-04-19T09:52:31;98788.13;;;6.56;100.00
52319;BME280;38258;51.148;14.068;2023-04-19T09:54:59;98803.41;;;7.07;100.00
52319;BME280;38258;51.148;14.068;2023-04-19T09:57:26;98799.28;;;6.78;100.00
52319;BME280;38258;51.148;14.068;2023-04-19T09:59:52;98787.84;;;7.01;100.00
52319;BME280;38258;51.148;14.068;2023-04-19T10:02:20;98782.03;;;6.62;100.00
52319;BME280;38258;51.148;14.068;2023-04-19T10:04:47;98794.19;;;7.71;100.00
52319;BME280;38258;51.148;14.068;2023-04-19T10:07:14;98781.97;;;7.77;100.00
52319;BME280;38258;51.148;14.068;2023-04-19T10:09:41;98777.41;;;7.06;100.00
52319;BME280;38258;51.148;14.068;2023-04-19T10:12:07;98775.81;;;6.88;100.00
52319;BME280;38258;51.148;14.068;2023-04-19T10:14:34;98777.00;;;6.34;100.00
52319;BME280;38258;51.148;14.068;2023-04-19T10:17:01;98786.63;;;6.10;100.00
52319;BME280;38258;51.148;14.068;2023-04-19T10:19:30;98790.13;;;5.97;100.00
52319;BME280;38258;51.148;14.068;2023-04-19T10:22:00;98774.53;;;5.90;100.00
52319;BME280;38258;51.148;14.068;2023-04-19T10:24:29;98789.22;;;6.08;100.00
52319;BME280;38258;51.148;14.068;2023-04-19T10:27:08;98787.53;;;6.03;100.00
52319;BME280;38258;51.148;14.068;2023-04-19T10:29:55;98770.91;;;6.40;100.00
52319;BME280;38258;51.148;14.068;2023-04-19T10:32:21;98720.47;;;6.69;100.00
52319;BME280;38258;51.148;14.068;2023-04-19T10:34:51;98779.88;;;7.26;100.00
52319;BME280;38258;51.148;14.068;2023-04-19T10:37:21;98771.09;;;7.35;100.00
52319;BME280;38258;51.148;14.068;2023-04-19T10:39:48;98783.69;;;6.77;100.00
52319;BME280;38258;51.148;14.068;2023-04-19T10:42:14;98778.56;;;6.64;100.00
52319;BME280;38258;51.148;14.068;2023-04-19T10:44:41;98740.47;;;6.57;100.00
52319;BME280;38258;51.148;14.068;2023-04-19T10:47:08;98773.84;;;7.18;100.00
52319;BME280;38258;51.148;14.068;2023-04-19T10:49:43;98774.41;;;7.51;100.00
52319;BME280;38258;51.148;14.068;2023-04-19T10:52:25;98740.75;;;7.32;100.00
52319;BME280;38258;51.148;14.068;2023-04-19T10:54:55;98773.41;;;7.66;100.00
52319;BME280;38258;51.148;14.068;2023-04-19T10:57:21;98763.34;;;7.29;100.00
52319;BME280;38258;51.148;14.068;2023-04-19T11:00:17;98752.44;;;6.85;100.00
52319;BME280;38258;51.148;14.068;2023-04-19T11:02:43;98772.41;;;6.81;100.00
52319;BME280;38258;51.148;14.068;2023-04-19T11:05:10;98743.19;;;6.39;100.00
52319;BME280;38258;51.148;14.068;2023-04-19T11:07:40;98759.53;;;6.62;100.00
52319;BME280;38258;51.148;14.068;2023-04-19T11:10:08;98757.84;;;6.54;100.00
52319;BME280;38258;51.148;14.068;2023-04-19T11:12:35;98756.06;;;6.63;100.00
52319;BME280;38258;51.148;14.068;2023-04-19T11:15:04;98766.56;;;6.42;100.00
52319;BME280;38258;51.148;14.068;2023-04-19T11:17:33;98750.19;;;6.22;100.00
52319;BME280;38258;51.148;14.068;2023-04-19T11:20:03;98710.53;;;5.82;100.00
52319;BME280;38258;51.148;14.068;2023-04-19T11:22:32;98742.53;;;5.88;100.00
52319;BME280;38258;51.148;14.068;2023-04-19T11:25:11;98754.59;;;6.14;100.00
52319;BME280;38258;51.148;14.068;2023-04-19T11:27:39;98758.97;;;5.87;100.00
52319;BME280;38258;51.148;14.068;2023-04-19T11:30:08;98752.94;;;5.82;100.00
52319;BME280;38258;51.148;14.068;2023-04-19T11:32:36;98732.25;;;5.52;100.00
52319;BME280;38258;51.148;14.068;2023-04-19T11:35:04;98755.56;;;5.77;100.00
52319;BME280;38258;51.148;14.068;2023-04-19T11:37:32;98753.84;;;5.64;100.00
52319;BME280;38258;51.148;14.068;2023-04-19T11:39:58;98752.16;;;5.55;100.00
52319;BME280;38258;51.148;14.068;2023-04-19T11:42:26;98746.03;;;5.79;100.00
52319;BME280;38258;51.148;14.068;2023-04-19T11:44:53;98737.34;;;5.79;100.00
52319;BME280;38258;51.148;14.068;2023-04-19T11:47:21;98735.56;;;5.93;100.00
52319;BME280;38258;51.148;14.068;2023-04-19T11:49:48;98745.81;;;6.40;100.00
52319;BME280;38258;51.148;14.068;2023-04-19T11:52:20;98724.03;;;6.57;100.00
52319;BME280;38258;51.148;14.068;2023-04-19T11:54:47;98707.56;;;6.56;100.00
52319;BME280;38258;51.148;14.068;2023-04-19T11:57:13;98742.22;;;6.61;100.00
52319;BME280;38258;51.148;14.068;2023-04-19T12:00:01;98734.47;;;6.47;100.00
52319;BME280;38258;51.148;14.068;2023-04-19T12:02:38;98716.25;;;6.55;100.00
52319;BME280;38258;51.148;14.068;2023-04-19T12:05:09;98723.25;;;6.47;100.00
52319;BME280;38258;51.148;14.068;2023-04-19T12:07:36;98731.91;;;6.43;100.00
52319;BME280;38258;51.148;14.068;2023-04-19T12:10:10;98732.81;;;6.37;100.00
52319;BME280;38258;51.148;14.068;2023-04-19T12:12:36;98733.56;;;6.58;100.00
52319;BME280;38258;51.148;14.068;2023-04-19T12:15:06;98676.66;;;6.14;100.00
52319;BME280;38258;51.148;14.068;2023-04-19T12:17:32;98734.47;;;6.47;100.00
52319;BME280;38258;51.148;14.068;2023-04-19T12:20:00;98721.38;;;6.63;100.00
52319;BME280;38258;51.148;14.068;2023-04-19T12:22:26;98685.84;;;6.68;100.00
52319;BME280;38258;51.148;14.068;2023-04-19T12:24:53;98718.69;;;6.74;100.00
52319;BME280;38258;51.148;14.068;2023-04-19T12:27:20;98716.25;;;6.57;100.00
52319;BME280;38258;51.148;14.068;2023-04-19T12:29:47;98715.19;;;6.79;100.00
52319;BME280;38258;51.148;14.068;2023-04-19T12:32:15;98706.78;;;6.46;100.00
52319;BME280;38258;51.148;14.068;2023-04-19T12:34:41;98707.53;;;6.59;100.00
52319;BME280;38258;51.148;14.068;2023-04-19T12:37:08;98701.66;;;6.29;100.00
52319;BME280;38258;51.148;14.068;2023-04-19T12:39:35;98646.28;;;6.22;100.00
52319;BME280;38258;51.148;14.068;2023-04-19T12:42:01;98697.06;;;6.73;100.00
52319;BME280;38258;51.148;14.068;2023-04-19T12:44:28;98684.97;;;7.57;100.00
52319;BME280;38258;51.148;14.068;2023-04-19T12:46:54;98678.13;;;8.20;100.00
52319;BME280;38258;51.148;14.068;2023-04-19T12:49:23;98672.75;;;8.31;97.87
52319;BME280;38258;51.148;14.068;2023-04-19T12:51:49;98664.22;;;9.29;91.61
52319;BME280;38258;51.148;14.068;2023-04-19T12:54:16;98669.50;;;8.76;90.27
52319;BME280;38258;51.148;14.068;2023-04-19T12:56:42;98674.88;;;10.46;86.26